Time,TemperatureF,DewpointF,PressureIn,WindDirection,WindDirectionDegrees,WindSpeedMPH,WindSpeedGustMPH,Humidity,HourlyPrecipIn,Conditions,Clouds,dailyrainin,SoftwareType,DateUTC
2015-03-04 00:03:00,69.9,70.0,29.99,SE,142,0.0,0.0,99,0.23,,,0.01,weatherlink.com 1.10,2015-03-04 10:03:00,
2015-03-04 00:18:00,69.9,70.0,29.99,SW,215,0.0,0.0,100,0.25,,,0.10,weatherlink.com 1.10,2015-03-04 10:18:00,
2015-03-04 00:33:00,69.9,70.0,29.99,SW,232,0.0,1.0,100,0.23,,,0.15,weatherlink.com 1.10,2015-03-04 10:33:00,
2015-03-04 00:48:00,69.7,70.0,29.98,SSE,165,0.0,0.0,100,0.23,,,0.20,weatherlink.com 1.10,2015-03-04 10:48:00,
2015-03-04 01:03:00,69.5,70.0,29.98,South,186,2.0,4.0,100,0.26,,,0.27,weatherlink.com 1.10,2015-03-04 11:03:00,
2015-03-04 01:18:00,69.2,69.0,29.97,SSE,155,1.0,2.0,100,0.22,,,0.33,weatherlink.com 1.10,2015-03-04 11:18:00,
2015-03-04 01:33:00,69.1,69.0,29.96,South,186,0.0,3.0,100,0.20,,,0.35,weatherlink.com 1.10,2015-03-04 11:33:00,
2015-03-04 01:48:00,69.0,69.0,29.96,SW,219,1.0,4.0,100,0.16,,,0.36,weatherlink.com 1.10,2015-03-04 11:48:00,
2015-03-04 02:03:00,69.0,69.0,29.96,SW,219,0.0,0.0,100,0.13,,,0.41,weatherlink.com 1.10,2015-03-04 12:03:00,
2015-03-04 02:18:00,68.9,69.0,29.95,SSE,168,2.0,4.0,100,0.29,,,0.63,weatherlink.com 1.10,2015-03-04 12:18:00,
2015-03-04 02:33:00,68.6,69.0,29.93,SSW,212,0.0,5.0,100,0.36,,,0.71,weatherlink.com 1.10,2015-03-04 12:33:00,
2015-03-04 02:48:00,68.4,68.0,29.93,East,94,2.0,3.0,100,0.37,,,0.73,weatherlink.com 1.10,2015-03-04 12:48:00,
2015-03-04 03:04:00,68.5,69.0,29.92,South,174,4.0,5.0,100,0.32,,,0.74,weatherlink.com 1.10,2015-03-04 13:04:00,
2015-03-04 03:19:00,68.5,69.0,29.91,SSW,200,0.0,3.0,100,0.11,,,0.74,weatherlink.com 1.10,2015-03-04 13:19:00,
2015-03-04 03:34:00,68.5,69.0,29.91,SSW,197,0.0,0.0,100,0.03,,,0.74,weatherlink.com 1.10,2015-03-04 13:34:00,
2015-03-04 03:49:00,68.4,68.0,29.90,SSW,200,0.0,1.0,100,0.01,,,0.74,weatherlink.com 1.10,2015-03-04 13:49:00,
2015-03-04 04:04:00,68.2,68.0,29.90,SSW,201,0.0,0.0,100,0.00,,,0.74,weatherlink.com 1.10,2015-03-04 14:04:00,
2015-03-04 04:19:00,68.1,68.0,29.90,SSE,165,0.0,3.0,100,0.00,,,0.74,weatherlink.com 1.10,2015-03-04 14:19:00,
2015-03-04 04:34:00,68.1,68.0,29.91,SW,214,0.0,1.0,100,0.00,,,0.74,weatherlink.com 1.10,2015-03-04 14:34:00,
2015-03-04 04:49:00,68.3,68.0,29.92,SE,125,0.0,2.0,100,0.01,,,0.75,weatherlink.com 1.10,2015-03-04 14:49:00,
2015-03-04 05:04:00,68.8,69.0,29.92,NE,48,0.0,2.0,100,0.03,,,0.77,weatherlink.com 1.10,2015-03-04 15:04:00,
2015-03-04 05:19:00,68.9,69.0,29.93,SSE,155,0.0,1.0,100,0.06,,,0.80,weatherlink.com 1.10,2015-03-04 15:19:00,
2015-03-04 05:34:00,68.8,69.0,29.94,SSE,152,0.0,1.0,100,0.09,,,0.83,weatherlink.com 1.10,2015-03-04 15:34:00,
2015-03-04 05:49:00,68.6,69.0,29.94,South,186,0.0,0.0,100,0.10,,,0.85,weatherlink.com 1.10,2015-03-04 15:49:00,
2015-03-04 06:04:00,68.1,68.0,29.95,South,190,0.0,1.0,100,0.11,,,0.88,weatherlink.com 1.10,2015-03-04 16:04:00,
2015-03-04 06:19:00,67.8,68.0,29.96,South,190,0.0,0.0,100,0.18,,,0.98,weatherlink.com 1.10,2015-03-04 16:19:00,
2015-03-04 06:34:00,67.7,68.0,29.98,South,191,0.0,0.0,100,0.28,,,1.11,weatherlink.com 1.10,2015-03-04 16:34:00,
2015-03-04 06:49:00,67.7,68.0,29.98,SSW,203,0.0,0.0,100,0.35,,,1.20,weatherlink.com 1.10,2015-03-04 16:49:00,
2015-03-04 07:04:00,67.7,68.0,29.99,South,176,0.0,1.0,100,0.40,,,1.28,weatherlink.com 1.10,2015-03-04 17:04:00,
2015-03-04 07:19:00,67.6,68.0,29.99,SSE,153,0.0,0.0,100,0.33,,,1.31,weatherlink.com 1.10,2015-03-04 17:19:00,
2015-03-04 07:34:00,67.4,67.0,29.98,SW,214,3.0,6.0,100,0.21,,,1.32,weatherlink.com 1.10,2015-03-04 17:34:00,
2015-03-04 07:49:00,67.4,67.0,29.99,SSE,165,1.0,6.0,100,0.14,,,1.34,weatherlink.com 1.10,2015-03-04 17:49:00,
2015-03-04 08:04:00,67.2,67.0,30.00,SSE,155,1.0,5.0,99,0.07,,,1.35,weatherlink.com 1.10,2015-03-04 18:04:00,
2015-03-04 08:19:00,67.3,67.0,29.99,SSE,160,0.0,3.0,99,0.06,,,1.37,weatherlink.com 1.10,2015-03-04 18:19:00,
2015-03-04 08:34:00,67.7,67.0,29.99,SSW,205,0.0,2.0,99,0.05,,,1.37,weatherlink.com 1.10,2015-03-04 18:34:00,
2015-03-04 08:49:00,68.0,68.0,30.00,SSW,207,0.0,1.0,99,0.03,,,1.37,weatherlink.com 1.10,2015-03-04 18:49:00,
2015-03-04 09:04:00,68.1,68.0,30.01,SSW,213,0.0,1.0,99,0.02,,,1.37,weatherlink.com 1.10,2015-03-04 19:04:00,
2015-03-04 09:19:00,68.8,69.0,30.02,SSW,208,0.0,0.0,99,0.00,,,1.37,weatherlink.com 1.10,2015-03-04 19:19:00,
2015-03-04 09:34:00,69.3,69.0,30.02,SW,216,0.0,0.0,99,0.01,,,1.38,weatherlink.com 1.10,2015-03-04 19:34:00,
2015-03-04 09:49:00,68.6,68.0,30.04,WNW,293,4.0,10.0,98,0.01,,,1.38,weatherlink.com 1.10,2015-03-04 19:49:00,
2015-03-04 10:04:00,66.1,65.0,30.05,NW,305,3.0,8.0,97,0.02,,,1.39,weatherlink.com 1.10,2015-03-04 20:04:00,
2015-03-04 10:19:00,65.3,65.0,30.05,WSW,240,3.0,9.0,97,0.03,,,1.40,weatherlink.com 1.10,2015-03-04 20:19:00,
2015-03-04 10:34:00,65.6,65.0,30.04,NW,322,2.0,8.0,97,0.03,,,1.41,weatherlink.com 1.10,2015-03-04 20:34:00,
2015-03-04 10:50:00,66.0,65.0,30.04,West,271,2.0,7.0,97,0.03,,,1.41,weatherlink.com 1.10,2015-03-04 20:50:00,
2015-03-04 11:05:00,66.3,66.0,30.04,West,263,1.0,6.0,97,0.03,,,1.42,weatherlink.com 1.10,2015-03-04 21:05:00,
2015-03-04 11:20:00,66.9,66.0,30.02,WNW,300,0.0,4.0,97,0.03,,,1.43,weatherlink.com 1.10,2015-03-04 21:20:00,
2015-03-04 11:35:00,67.4,67.0,30.01,SW,233,0.0,4.0,97,0.03,,,1.44,weatherlink.com 1.10,2015-03-04 21:35:00,
2015-03-04 11:50:00,67.8,67.0,30.00,WSW,255,0.0,2.0,97,0.04,,,1.45,weatherlink.com 1.10,2015-03-04 21:50:00,
2015-03-04 12:05:00,68.0,67.0,30.00,NW,311,0.0,2.0,97,0.03,,,1.45,weatherlink.com 1.10,2015-03-04 22:05:00,
2015-03-04 12:20:00,67.8,67.0,29.97,NE,40,0.0,2.0,96,0.03,,,1.46,weatherlink.com 1.10,2015-03-04 22:20:00,
2015-03-04 12:35:00,68.1,67.0,29.97,NW,317,0.0,3.0,96,0.03,,,1.47,weatherlink.com 1.10,2015-03-04 22:35:00,
2015-03-04 12:50:00,68.5,67.0,29.96,NNW,330,1.0,4.0,95,0.03,,,1.48,weatherlink.com 1.10,2015-03-04 22:50:00,
2015-03-04 13:05:00,68.9,67.0,29.97,SSE,165,0.0,2.0,93,0.03,,,1.48,weatherlink.com 1.10,2015-03-04 23:05:00,
2015-03-04 13:20:00,68.3,66.0,29.96,WSW,255,0.0,2.0,93,0.02,,,1.48,weatherlink.com 1.10,2015-03-04 23:20:00,
2015-03-04 13:35:00,68.2,66.0,29.96,WSW,240,2.0,5.0,91,0.01,,,1.48,weatherlink.com 1.10,2015-03-04 23:35:00,
2015-03-04 13:50:00,68.7,65.0,29.96,NW,323,3.0,7.0,87,0.01,,,1.49,weatherlink.com 1.10,2015-03-04 23:50:00,
2015-03-04 14:05:00,68.3,65.0,29.96,SW,218,0.0,4.0,89,0.02,,,1.50,weatherlink.com 1.10,2015-03-05 00:05:00,
2015-03-04 14:20:00,68.2,66.0,29.95,SW,219,0.0,6.0,91,0.02,,,1.50,weatherlink.com 1.10,2015-03-05 00:20:00,
2015-03-04 14:35:00,69.1,66.0,29.95,WSW,240,0.0,3.0,91,0.02,,,1.50,weatherlink.com 1.10,2015-03-05 00:35:00,
2015-03-04 14:50:00,69.9,67.0,29.94,West,262,1.0,5.0,89,0.01,,,1.50,weatherlink.com 1.10,2015-03-05 00:50:00,
2015-03-04 15:05:00,70.2,66.0,29.93,WSW,238,0.0,6.0,86,0.00,,,1.50,weatherlink.com 1.10,2015-03-05 01:05:00,
2015-03-04 15:20:00,70.1,66.0,29.93,WNW,297,2.0,6.0,86,0.00,,,1.50,weatherlink.com 1.10,2015-03-05 01:20:00,
2015-03-04 15:35:00,70.6,66.0,29.92,NW,315,3.0,5.0,85,0.00,,,1.50,weatherlink.com 1.10,2015-03-05 01:35:00,
2015-03-04 15:50:00,71.0,64.0,29.91,North,350,4.0,6.0,79,0.00,,,1.50,weatherlink.com 1.10,2015-03-05 01:50:00,
2015-03-04 16:05:00,71.1,64.0,29.91,WSW,253,2.0,8.0,77,0.00,,,1.50,weatherlink.com 1.10,2015-03-05 02:05:00,
2015-03-04 16:20:00,71.1,63.0,29.90,NW,305,2.0,9.0,75,0.00,,,1.50,weatherlink.com 1.10,2015-03-05 02:20:00,
2015-03-04 16:35:00,71.4,62.0,29.89,NNW,330,3.0,10.0,73,0.00,,,1.50,weatherlink.com 1.10,2015-03-05 02:35:00,
2015-03-04 16:50:00,71.1,61.0,29.89,WNW,298,4.0,6.0,71,0.00,,,1.50,weatherlink.com 1.10,2015-03-05 02:50:00,
2015-03-04 17:05:00,71.9,61.0,29.89,North,354,2.0,8.0,68,0.00,,,1.50,weatherlink.com 1.10,2015-03-05 03:05:00,
2015-03-04 17:20:00,71.6,61.0,29.90,NW,306,1.0,5.0,70,0.00,,,1.50,weatherlink.com 1.10,2015-03-05 03:20:00,
2015-03-04 17:35:00,70.8,62.0,29.91,WSW,243,2.0,4.0,73,0.00,,,1.50,weatherlink.com 1.10,2015-03-05 03:35:00,
2015-03-04 17:50:00,70.4,61.0,29.92,WNW,296,5.0,5.0,72,0.00,,,1.50,weatherlink.com 1.10,2015-03-05 03:50:00,
2015-03-04 18:05:00,70.4,60.0,29.92,WSW,253,2.0,3.0,70,0.00,,,1.50,weatherlink.com 1.10,2015-03-05 04:05:00,
2015-03-04 18:20:00,69.8,61.0,29.94,West,261,1.0,3.0,73,0.00,,,1.50,weatherlink.com 1.10,2015-03-05 04:20:00,
2015-03-04 18:35:00,69.5,61.0,29.94,WSW,238,1.0,4.0,73,0.00,,,1.50,weatherlink.com 1.10,2015-03-05 04:35:00,
2015-03-04 18:50:00,69.4,60.0,29.96,North,9,1.0,6.0,72,0.00,,,1.50,weatherlink.com 1.10,2015-03-05 04:50:00,
2015-03-04 19:05:00,70.5,60.0,29.96,WSW,238,2.0,6.0,69,0.00,,,1.50,weatherlink.com 1.10,2015-03-05 05:05:00,
2015-03-04 19:20:00,70.9,61.0,29.97,NW,319,6.0,7.0,70,0.00,,,1.50,weatherlink.com 1.10,2015-03-05 05:20:00,
2015-03-04 19:35:00,70.4,62.0,29.98,NW,320,4.0,6.0,74,0.00,,,1.50,weatherlink.com 1.10,2015-03-05 05:35:00,
2015-03-04 19:50:00,69.4,62.0,29.98,WSW,245,2.0,5.0,76,0.00,,,1.50,weatherlink.com 1.10,2015-03-05 05:50:00,
2015-03-04 20:05:00,68.5,61.0,29.97,SW,236,0.0,2.0,78,0.00,,,1.50,weatherlink.com 1.10,2015-03-05 06:05:00,
2015-03-04 20:20:00,68.4,62.0,29.98,WSW,240,2.0,5.0,80,0.00,,,1.50,weatherlink.com 1.10,2015-03-05 06:20:00,
2015-03-04 20:35:00,68.5,62.0,29.98,WSW,240,1.0,3.0,80,0.00,,,1.50,weatherlink.com 1.10,2015-03-05 06:35:00,
2015-03-04 20:50:00,68.5,62.0,29.99,SW,233,1.0,3.0,80,0.00,,,1.50,weatherlink.com 1.10,2015-03-05 06:50:00,
2015-03-04 21:05:00,67.6,63.0,29.98,South,173,1.0,1.0,84,0.01,,,1.51,weatherlink.com 1.10,2015-03-05 07:05:00,
2015-03-04 21:20:00,66.6,63.0,29.99,SE,138,0.0,1.0,87,0.01,,,1.51,weatherlink.com 1.10,2015-03-05 07:20:00,
2015-03-04 21:35:00,66.5,63.0,29.98,South,187,1.0,3.0,87,0.01,,,1.51,weatherlink.com 1.10,2015-03-05 07:35:00,